KVHN/VHN METAR and TAF weather

Enter ICAO airport designator
Station Type Date Time Source
KVHN METAR 2021/05/12 05:35 UTC NOAA

KVHN 120535Z AUTO 05012KT 10SM CLR 17/11 A3017 RMK AO2 T01740111


Station Type Date Time Source
KVHN Decoded METAR 2021/05/12 05:35 UTC NOAA

Station name not available
May 12, 2021 - 01:35 AM EDT / 2021.05.12 0535 UTC
Wind: from the NE (050 degrees) at 14 MPH (12 KT):0
Visibility: 10 mile(s):0
Sky conditions: clear
Temperature: 63.3 F (17.4 C)
Dew Point: 52.0 F (11.1 C)
Relative Humidity: 66%
Pressure (altimeter): 30.17 in. Hg (1021 hPa)
ob: KVHN 120535Z AUTO 05012KT 10SM CLR 17/11 A3017 RMK AO2 T01740111
cycle: 5

Station Type Date Time Source
KVHN TAF UTC NOAA

Error!

Example: see airport list